Altura, MN

5:05 PM CDT on July 07, 2015 (GMT -0500)
Altura,MN | | Change Station
CLOSE
Current Station
Personal Weather Station
Location: Altura, MN
Elevation: 1165 ft
Nearby Weather Stations

Elev 1165 ft 44.07 °N, 91.94 °W | Updated 26 seconds ago

Overcast
Overcast
69.6 °F
Feels Like 69.6 °F
N
4.5
Wind Variable Wind from North
Gusts 12.1 mph

Today
High -- | Low -- °F
--% Chance of Precip.
Yesterday
High -- | Low -- °F
Precip. -- in
5:31 AM 8:53 PM
Waning Gibbous, 61% visible
Pressure 30.11 in
Visibility 10.0 miles
Clouds Scattered Clouds 4800 ft
Dew Point 51 °F
Humidity 52%
Rainfall 0.00 in
Snow Depth Not available.
UV 4 out of 12
Pollen 4.20 out of 12
Air Quality Not available.
Flu Activity Not available.
METAR KONA 072154Z AUTO 00000KT 10SM SCT048 21/08 A3011 RMK AO2

More Conditions Fewer Conditions

Pressure 30.11 in
Visibility 10.0 miles
Clouds Scattered Clouds 4800 ft
Dew Point 51 °F
Humidity 52%
Rainfall 0.00 in
Snow Depth Not available.
UV 4 out of 12
Pollen 4.20 out of 12
Air Quality Not available.
Flu Activity Not available.
METAR KONA 072154Z AUTO 00000KT 10SM SCT048 21/08 A3011 RMK AO2

More Conditions Fewer Conditions

10-Day Weather Forecast

×

Almanac

Astronomy

Jul. 07, 2015 Rise Set
Actual Time
Civil Twilight
Nautical Twilight
Astronomical Twilight
Moon
Length of Visible Light
Length of Day
Tomorrow will be .
, % of the Moon is Illuminated

Today's Extremes

State Highs State Lows

Community

WunderPhotos

Upload Photos

1,835,939 photos uploaded!

WunderBlogs® & News

Nearby

Air Quality

  Air Quality AQ Index Pollutant
Not available.

Snow Depth

Station Depth Elevation

Earthquake Activity

City Distance Mag. Time & Date
Minimum magnitude displayed is 2.5.

Coastal Water Temperatures

Place Temperature

Stations

Nearby Weather Stations

Station Location Temp. Windchill Dew Point Humidity Wind Precip. Elev Updated Type